createdAt,value
2019-05-15T00:02:00.458Z,6.42
2019-05-15T00:04:31.273Z,6.32
2019-05-15T00:07:02.115Z,6.42
2019-05-15T00:09:33.044Z,6.34
2019-05-15T00:12:03.977Z,6.34
2019-05-15T00:14:34.846Z,6.34
2019-05-15T00:17:08.124Z,6.41
2019-05-15T00:19:38.937Z,6.31
2019-05-15T00:22:09.890Z,6.28
2019-05-15T00:24:40.650Z,6.11
2019-05-15T00:27:11.070Z,6.14
2019-05-15T00:29:41.924Z,6.12
2019-05-15T00:32:12.315Z,6.10
2019-05-15T00:34:43.044Z,6.00
2019-05-15T00:37:13.782Z,6.06
2019-05-15T00:39:44.552Z,5.96
2019-05-15T00:42:15.397Z,6.00
2019-05-15T00:44:46.202Z,5.94
2019-05-15T00:47:18.133Z,5.92
2019-05-15T00:49:49.580Z,5.80
2019-05-15T00:52:20.598Z,5.97
2019-05-15T00:54:51.292Z,5.77
2019-05-15T00:57:22.111Z,5.98
2019-05-15T00:59:52.958Z,5.91
2019-05-15T01:02:24.928Z,5.84
2019-05-15T01:04:55.720Z,5.76
2019-05-15T01:07:28.181Z,5.80
2019-05-15T01:10:00.627Z,5.86
2019-05-15T01:12:31.457Z,5.68
2019-05-15T01:15:02.427Z,5.71
2019-05-15T01:17:33.226Z,5.54
2019-05-15T01:20:04.928Z,5.64
2019-05-15T01:22:35.858Z,5.73
2019-05-15T01:25:08.685Z,5.50
2019-05-15T01:27:39.745Z,5.56
2019-05-15T01:30:11.011Z,5.40
2019-05-15T01:32:41.738Z,5.44
2019-05-15T01:35:12.976Z,5.41
2019-05-15T01:37:45.276Z,5.44
2019-05-15T01:40:18.245Z,5.37
2019-05-15T01:42:51.122Z,5.32
2019-05-15T01:45:22.153Z,5.24
2019-05-15T01:47:52.583Z,5.46
2019-05-15T01:50:23.369Z,5.36
2019-05-15T01:52:55.784Z,5.45
2019-05-15T01:55:35.084Z,5.53
2019-05-15T01:58:05.885Z,5.30
2019-05-15T02:00:38.862Z,5.25
2019-05-15T02:03:09.670Z,5.25
2019-05-15T02:05:40.643Z,5.38
2019-05-15T02:08:11.478Z,5.30
2019-05-15T02:10:43.734Z,5.34
2019-05-15T02:13:14.672Z,5.22
2019-05-15T02:15:45.454Z,5.20
2019-05-15T02:18:18.910Z,5.20
2019-05-15T02:20:49.303Z,5.26
2019-05-15T02:23:20.493Z,5.07
2019-05-15T02:25:51.294Z,5.08
2019-05-15T02:28:22.034Z,5.03
2019-05-15T02:30:52.841Z,5.10
2019-05-15T02:33:23.636Z,5.04
2019-05-15T02:35:54.102Z,4.98
2019-05-15T02:38:24.770Z,4.99
2019-05-15T02:40:59.013Z,5.03
2019-05-15T02:43:29.807Z,4.96
2019-05-15T02:46:00.736Z,4.90
2019-05-15T02:48:31.995Z,4.90
2019-05-15T02:51:02.761Z,4.88
2019-05-15T02:53:33.589Z,4.82
2019-05-15T02:56:04.317Z,4.90
2019-05-15T02:58:34.737Z,4.90
2019-05-15T03:01:05.485Z,4.91
2019-05-15T03:03:38.538Z,4.94
2019-05-15T03:06:10.312Z,4.88
2019-05-15T03:08:41.324Z,4.86
2019-05-15T03:11:13.770Z,4.82
2019-05-15T03:13:44.607Z,4.88
2019-05-15T03:16:19.365Z,4.86
2019-05-15T03:18:51.123Z,4.82
2019-05-15T03:21:22.935Z,4.82
2019-05-15T03:23:53.783Z,4.92
2019-05-15T03:26:24.321Z,4.82
2019-05-15T03:28:55.133Z,4.74
2019-05-15T03:31:46.351Z,4.80
2019-05-15T03:34:03.107Z,4.78
2019-05-15T03:36:32.954Z,4.84
2019-05-15T03:39:05.644Z,4.81
2019-05-15T03:41:39.073Z,4.84
2019-05-15T03:44:09.637Z,4.73
2019-05-15T03:46:40.722Z,4.81
2019-05-15T03:49:13.079Z,4.84
2019-05-15T03:51:45.981Z,4.84
2019-05-15T03:54:18.992Z,4.88
2019-05-15T03:56:50.085Z,4.72
2019-05-15T03:59:21.437Z,4.81
2019-05-15T04:01:52.183Z,4.88
2019-05-15T04:04:22.943Z,4.80
2019-05-15T04:06:53.759Z,4.76
2019-05-15T04:09:24.581Z,4.66
2019-05-15T04:11:55.491Z,4.82
2019-05-15T04:14:29.339Z,4.76
2019-05-15T04:16:59.567Z,4.74
2019-05-15T04:19:30.701Z,4.82
2019-05-15T04:22:01.397Z,4.80
2019-05-15T04:24:32.991Z,4.83
2019-05-15T04:27:07.184Z,4.90
2019-05-15T04:29:39.810Z,4.94
2019-05-15T04:32:12.298Z,5.00
2019-05-15T04:34:42.996Z,5.06
2019-05-15T04:37:13.829Z,5.19
2019-05-15T04:39:44.666Z,5.28
2019-05-15T04:42:15.496Z,5.20
2019-05-15T04:44:49.452Z,5.28
2019-05-15T04:47:20.649Z,5.23
2019-05-15T04:49:51.598Z,5.20
2019-05-15T04:52:22.427Z,5.31
2019-05-15T04:54:55.711Z,5.28
2019-05-15T04:57:32.554Z,5.22
2019-05-15T04:59:59.422Z,5.21
2019-05-15T05:02:32.068Z,5.30
2019-05-15T05:05:02.557Z,5.32
2019-05-15T05:07:33.553Z,5.38
2019-05-15T05:10:04.678Z,5.38
2019-05-15T05:12:35.343Z,5.34
2019-05-15T05:15:08.439Z,5.33
2019-05-15T05:17:39.580Z,5.37
2019-05-15T05:20:10.719Z,5.42
2019-05-15T05:22:41.208Z,5.49
2019-05-15T05:25:12.513Z,5.52
2019-05-15T05:27:43.453Z,5.59
2019-05-15T05:30:15.301Z,5.64
2019-05-15T05:32:48.620Z,5.56
2019-05-15T05:35:21.477Z,5.60
2019-05-15T05:37:52.331Z,5.75
2019-05-15T05:40:23.066Z,5.74
2019-05-15T05:42:53.931Z,5.84
2019-05-15T05:45:24.723Z,5.86
2019-05-15T05:47:57.963Z,5.83
2019-05-15T05:50:44.316Z,6.02
2019-05-15T05:53:15.331Z,5.98
2019-05-15T05:55:48.696Z,6.10
2019-05-15T05:58:20.326Z,5.96
2019-05-15T06:00:51.370Z,6.07
2019-05-15T06:03:22.329Z,6.30
2019-05-15T06:05:52.816Z,6.20
2019-05-15T06:08:23.670Z,6.34
2019-05-15T06:10:54.549Z,6.21
2019-05-15T06:13:25.333Z,6.50
2019-05-15T06:15:59.306Z,6.52
2019-05-15T06:18:30.290Z,6.68
2019-05-15T06:21:01.048Z,6.68
2019-05-15T06:23:34.638Z,7.00
2019-05-15T06:26:04.662Z,6.90
2019-05-15T06:28:35.472Z,7.11
2019-05-15T06:31:08.572Z,7.25
2019-05-15T06:33:38.813Z,7.08
2019-05-15T06:36:09.552Z,7.32
2019-05-15T06:38:40.403Z,7.20
2019-05-15T06:41:11.238Z,7.35
2019-05-15T06:43:42.024Z,7.63
2019-05-15T06:46:12.820Z,7.82
2019-05-15T06:48:43.618Z,7.85
2019-05-15T06:51:14.458Z,8.16
2019-05-15T06:53:45.500Z,8.27
2019-05-15T06:56:18.576Z,8.52
2019-05-15T06:58:48.893Z,8.40
2019-05-15T07:01:19.854Z,8.62
2019-05-15T07:03:50.692Z,8.84
2019-05-15T07:06:21.412Z,8.78
2019-05-15T07:08:52.160Z,8.71
2019-05-15T07:11:22.878Z,8.88
2019-05-15T07:13:53.620Z,8.81
2019-05-15T07:16:24.440Z,8.84
2019-05-15T07:18:55.198Z,8.98
2019-05-15T07:21:28.338Z,8.89
2019-05-15T07:23:58.714Z,8.88
2019-05-15T07:26:29.667Z,9.05
2019-05-15T07:29:02.467Z,9.17
2019-05-15T07:31:33.458Z,9.13
2019-05-15T07:34:04.335Z,9.10
2019-05-15T07:36:35.172Z,9.20
2019-05-15T07:39:09.285Z,9.16
2019-05-15T07:41:39.740Z,9.19
2019-05-15T07:44:10.518Z,9.38
2019-05-15T07:46:41.250Z,9.53
2019-05-15T07:49:11.730Z,9.45
2019-05-15T07:51:42.421Z,9.52
2019-05-15T07:54:13.246Z,9.66
2019-05-15T07:56:44.096Z,9.71
2019-05-15T07:59:14.818Z,9.92
2019-05-15T08:01:45.214Z,10.02
2019-05-15T08:04:26.097Z,10.14
2019-05-15T08:06:49.043Z,10.31
2019-05-15T08:09:20.026Z,10.42
2019-05-15T08:11:50.865Z,10.45
2019-05-15T08:14:21.678Z,10.57
2019-05-15T08:16:52.421Z,10.58
2019-05-15T08:19:22.894Z,10.60
2019-05-15T08:21:53.573Z,10.76
2019-05-15T08:24:24.307Z,10.86
2019-05-15T08:26:54.688Z,11.02
2019-05-15T08:29:25.086Z,11.05
2019-05-15T08:31:56.196Z,11.10
2019-05-15T08:34:28.257Z,11.42
2019-05-15T08:36:59.363Z,11.58
2019-05-15T08:39:30.152Z,11.60
2019-05-15T08:42:00.994Z,11.59
2019-05-15T08:44:31.927Z,11.74
2019-05-15T08:47:02.756Z,11.69
2019-05-15T08:49:33.594Z,11.80
2019-05-15T08:52:07.168Z,11.76
2019-05-15T08:54:38.258Z,12.06
2019-05-15T08:57:09.259Z,11.97
2019-05-15T08:59:40.007Z,11.96
2019-05-15T09:02:10.939Z,11.88
2019-05-15T09:04:41.798Z,11.95
2019-05-15T09:07:12.321Z,11.84
2019-05-15T09:09:43.083Z,12.23
2019-05-15T09:12:13.894Z,11.92
2019-05-15T09:14:44.304Z,11.89
2019-05-15T09:17:14.873Z,11.86
2019-05-15T09:19:45.370Z,11.88
2019-05-15T09:22:18.555Z,12.06
2019-05-15T09:24:49.010Z,12.04
2019-05-15T09:27:19.756Z,12.01
2019-05-15T09:29:50.596Z,12.10
2019-05-15T09:32:21.425Z,12.27
2019-05-15T09:34:55.334Z,12.26
2019-05-15T09:37:24.751Z,12.18
2019-05-15T09:39:55.183Z,12.46
2019-05-15T09:42:26.002Z,12.76
2019-05-15T09:44:58.246Z,12.68
2019-05-15T09:47:29.632Z,12.68
2019-05-15T09:50:00.870Z,12.50
2019-05-15T09:52:31.373Z,12.72
2019-05-15T09:55:02.336Z,12.88
2019-05-15T09:57:32.866Z,12.85
2019-05-15T10:00:09.082Z,12.78
2019-05-15T10:02:40.051Z,13.12
2019-05-15T10:05:12.651Z,13.15
2019-05-15T10:07:43.561Z,13.07
2019-05-15T10:10:14.157Z,13.44
2019-05-15T10:12:49.438Z,13.52
2019-05-15T10:15:20.497Z,13.27
2019-05-15T10:17:51.514Z,13.24
2019-05-15T10:20:22.682Z,13.51
2019-05-15T10:22:54.903Z,13.22
2019-05-15T10:25:25.493Z,13.13
2019-05-15T10:27:57.943Z,13.26
2019-05-15T10:30:28.793Z,13.42
2019-05-15T10:32:59.719Z,13.42
2019-05-15T10:35:31.763Z,13.40
2019-05-15T10:38:04.323Z,13.52
2019-05-15T10:40:35.102Z,13.56
2019-05-15T10:43:08.806Z,13.20
2019-05-15T10:45:42.361Z,13.42
2019-05-15T10:48:11.242Z,13.68
2019-05-15T10:50:42.032Z,13.74
2019-05-15T10:53:12.472Z,13.96
2019-05-15T10:55:43.291Z,13.78
2019-05-15T10:58:18.241Z,13.72
2019-05-15T11:00:49.811Z,13.81
2019-05-15T11:03:20.811Z,13.29
2019-05-15T11:05:51.300Z,13.45
2019-05-15T11:08:22.071Z,13.80
2019-05-15T11:10:52.913Z,13.84
2019-05-15T11:13:23.830Z,13.72
2019-05-15T11:15:56.322Z,13.82
2019-05-15T11:18:30.433Z,13.82
2019-05-15T11:20:59.500Z,13.83
2019-05-15T11:23:30.375Z,13.82
2019-05-15T11:26:01.415Z,13.73
2019-05-15T11:28:33.881Z,13.54
2019-05-15T11:31:04.475Z,13.56
2019-05-15T11:33:35.407Z,13.82
2019-05-15T11:36:06.513Z,14.16
2019-05-15T11:38:38.213Z,13.98
2019-05-15T11:41:09.508Z,13.74
2019-05-15T11:43:40.255Z,13.78
2019-05-15T11:46:11.172Z,13.51
2019-05-15T11:48:41.916Z,14.08
2019-05-15T11:51:12.845Z,13.91
2019-05-15T11:53:43.677Z,14.02
2019-05-15T11:56:14.539Z,14.17
2019-05-15T11:58:45.367Z,14.54
2019-05-15T12:01:19.199Z,14.42
2019-05-15T12:03:48.595Z,14.50
2019-05-15T12:06:22.756Z,14.40
2019-05-15T12:08:53.320Z,14.42
2019-05-15T12:11:33.418Z,14.39
2019-05-15T12:13:56.515Z,14.34
2019-05-15T12:16:29.082Z,14.70
2019-05-15T12:19:09.130Z,14.78
2019-05-15T12:21:32.376Z,14.70
2019-05-15T12:24:02.818Z,14.46
2019-05-15T12:26:33.874Z,14.78
2019-05-15T12:29:05.246Z,14.68
2019-05-15T12:31:38.637Z,14.74
2019-05-15T12:34:09.214Z,14.64
2019-05-15T12:36:52.039Z,14.89
2019-05-15T12:39:13.699Z,14.76
2019-05-15T13:02:03.818Z,14.59
2019-05-15T13:04:36.143Z,14.36
2019-05-15T13:07:13.877Z,14.23
2019-05-15T13:09:39.301Z,14.27
2019-05-15T13:12:10.346Z,14.26
2019-05-15T13:14:41.067Z,14.25
2019-05-15T13:17:11.811Z,14.32
2019-05-15T13:19:42.534Z,14.12
2019-05-15T13:22:18.130Z,14.12
2019-05-15T13:24:48.318Z,14.21
2019-05-15T13:27:19.363Z,14.12
2019-05-15T13:29:50.086Z,13.89
2019-05-15T13:32:22.052Z,14.09
2019-05-15T13:34:54.526Z,14.06
2019-05-15T13:37:27.373Z,13.85
2019-05-15T13:39:58.685Z,13.86
2019-05-15T13:42:29.711Z,13.56
2019-05-15T13:45:00.428Z,13.52
2019-05-15T13:47:31.176Z,13.40
2019-05-15T13:50:01.734Z,13.56
2019-05-15T13:52:32.427Z,13.57
2019-05-15T13:55:03.334Z,13.33
2019-05-15T13:57:34.111Z,13.18
2019-05-15T14:00:08.693Z,12.76
2019-05-15T14:02:39.778Z,12.69
2019-05-15T14:05:12.360Z,12.38
2019-05-15T14:07:49.209Z,12.18
2019-05-15T14:10:17.979Z,11.76
2019-05-15T14:12:48.446Z,11.74
2019-05-15T14:15:21.902Z,11.53
2019-05-15T14:17:52.779Z,11.58
2019-05-15T14:20:23.666Z,11.72
2019-05-15T14:22:54.208Z,11.65
2019-05-15T14:25:26.827Z,11.92
2019-05-15T14:27:59.484Z,11.93
2019-05-15T14:30:30.241Z,11.96
2019-05-15T14:33:01.075Z,12.20
2019-05-15T14:35:33.106Z,12.26
2019-05-15T14:38:06.816Z,12.57
2019-05-15T14:40:36.494Z,12.60
2019-05-15T14:43:08.832Z,12.66
2019-05-15T14:45:39.390Z,12.95
2019-05-15T14:48:10.118Z,12.94
2019-05-15T14:50:40.846Z,12.80
2019-05-15T14:53:11.560Z,13.08
2019-05-15T14:55:44.166Z,13.32
2019-05-15T14:58:14.884Z,13.41
2019-05-15T15:00:49.702Z,13.45
2019-05-15T15:03:18.369Z,13.70
2019-05-15T15:05:51.178Z,13.45
2019-05-15T15:08:25.375Z,13.56
2019-05-15T15:10:59.250Z,13.59
2019-05-15T15:13:28.827Z,13.88
2019-05-15T15:15:59.948Z,13.75
2019-05-15T15:18:35.722Z,13.74
2019-05-15T15:21:19.536Z,14.02
2019-05-15T15:23:50.689Z,13.98
2019-05-15T15:26:21.512Z,13.93
2019-05-15T15:28:52.253Z,13.70
2019-05-15T15:31:33.961Z,13.80
2019-05-15T15:34:08.693Z,13.78
2019-05-15T15:36:39.726Z,13.66
2019-05-15T15:39:10.594Z,13.60
2019-05-15T15:41:41.334Z,13.54
2019-05-15T15:44:12.127Z,13.44
2019-05-15T15:46:42.575Z,13.28
2019-05-15T15:49:13.271Z,13.16
2019-05-15T15:51:44.020Z,13.16
2019-05-15T15:54:14.857Z,13.07
2019-05-15T15:56:48.330Z,13.05
2019-05-15T15:59:18.309Z,13.22
2019-05-15T16:01:49.677Z,13.10
2019-05-15T16:04:20.557Z,12.96
2019-05-15T16:06:52.502Z,13.04
2019-05-15T16:09:24.807Z,13.07
2019-05-15T16:11:55.538Z,13.11
2019-05-15T16:14:28.535Z,12.84
2019-05-15T16:16:59.115Z,12.80
2019-05-15T16:19:30.118Z,12.97
2019-05-15T16:22:02.099Z,13.00
2019-05-15T16:24:32.886Z,12.73
2019-05-15T16:27:03.704Z,12.74
2019-05-15T16:29:34.206Z,12.77
2019-05-15T16:32:05.268Z,12.76
2019-05-15T16:34:39.282Z,12.77
2019-05-15T16:37:13.703Z,12.76
2019-05-15T16:39:45.184Z,12.58
2019-05-15T16:42:18.034Z,12.63
2019-05-15T16:44:49.086Z,12.60
2019-05-15T16:47:22.336Z,12.52
2019-05-15T16:49:53.339Z,12.48
2019-05-15T16:52:24.237Z,12.42
2019-05-15T16:54:55.129Z,12.47
2019-05-15T16:57:28.277Z,12.42
2019-05-15T16:59:58.840Z,12.24
2019-05-15T17:02:32.152Z,12.28
2019-05-15T17:05:02.178Z,12.22
2019-05-15T17:07:32.976Z,12.23
2019-05-15T17:10:03.971Z,12.08
2019-05-15T17:12:35.333Z,12.20
2019-05-15T17:15:08.516Z,12.14
2019-05-15T17:17:39.893Z,12.04
2019-05-15T17:20:11.679Z,12.20
2019-05-15T17:22:42.866Z,12.07
2019-05-15T17:25:14.335Z,11.96
2019-05-15T17:27:46.654Z,12.04
2019-05-15T17:30:18.809Z,11.91
2019-05-15T17:32:49.482Z,11.90
2019-05-15T17:35:20.519Z,12.02
2019-05-15T17:37:51.301Z,11.98
2019-05-15T17:40:22.233Z,11.98
2019-05-15T17:42:54.673Z,11.88
2019-05-15T17:45:25.449Z,11.74
2019-05-15T17:47:58.454Z,11.70
2019-05-15T17:50:29.392Z,11.66
2019-05-15T17:53:00.143Z,11.73
2019-05-15T17:55:31.111Z,11.65
2019-05-15T17:58:01.889Z,11.43
2019-05-15T18:00:33.336Z,11.62
2019-05-15T18:03:04.591Z,11.28
2019-05-15T18:05:35.409Z,11.00
2019-05-15T18:08:05.873Z,11.08
2019-05-15T18:10:38.425Z,10.95
2019-05-15T18:13:09.422Z,10.76
2019-05-15T18:15:40.247Z,10.64
2019-05-15T18:18:11.081Z,10.52
2019-05-15T18:20:41.833Z,10.42
2019-05-15T18:23:12.719Z,10.41
2019-05-15T18:25:43.712Z,10.60
2019-05-15T18:28:14.624Z,10.36
2019-05-15T18:30:47.833Z,10.33
2019-05-15T18:33:18.529Z,10.38
2019-05-15T18:35:49.677Z,10.53
2019-05-15T18:38:20.509Z,10.58
2019-05-15T18:40:51.361Z,10.50
2019-05-15T18:43:22.204Z,10.50
2019-05-15T18:45:53.065Z,10.40
2019-05-15T18:48:23.960Z,10.35
2019-05-15T18:50:54.823Z,10.47
2019-05-15T18:53:25.633Z,10.55
2019-05-15T18:55:58.348Z,10.47
2019-05-15T18:58:42.737Z,10.42
2019-05-15T19:01:13.631Z,10.48
2019-05-15T19:03:44.459Z,10.32
2019-05-15T19:06:15.040Z,10.36
2019-05-15T19:08:45.775Z,10.40
2019-05-15T19:11:18.366Z,10.33
2019-05-15T19:13:48.715Z,10.36
2019-05-15T19:16:19.457Z,10.39
2019-05-15T19:18:50.314Z,10.38
2019-05-15T19:21:20.779Z,10.33
2019-05-15T19:23:53.192Z,10.30
2019-05-15T19:26:24.130Z,10.37
2019-05-15T19:28:54.876Z,10.40
2019-05-15T19:31:29.757Z,10.60
2019-05-15T19:33:58.278Z,10.45
2019-05-15T19:36:29.117Z,10.55
2019-05-15T19:38:59.954Z,10.34
2019-05-15T19:41:30.785Z,10.24
2019-05-15T19:44:01.603Z,10.12
2019-05-15T19:46:32.111Z,10.22
2019-05-15T19:49:02.975Z,10.24
2019-05-15T19:51:34.006Z,10.20
2019-05-15T19:54:04.858Z,10.25
2019-05-15T19:56:35.575Z,10.22
2019-05-15T19:59:08.634Z,10.34
2019-05-15T20:01:38.800Z,10.36
2019-05-15T20:04:09.243Z,10.26
2019-05-15T20:06:40.250Z,10.26
2019-05-15T20:09:10.985Z,10.26
2019-05-15T20:11:41.733Z,10.23
2019-05-15T20:14:12.463Z,10.18
2019-05-15T20:16:43.195Z,10.12
2019-05-15T20:19:13.952Z,10.14
2019-05-15T20:21:45.069Z,10.20
2019-05-15T20:24:18.050Z,10.16
2019-05-15T20:26:48.717Z,10.40
2019-05-15T20:29:19.747Z,10.30
2019-05-15T20:31:50.596Z,10.28
2019-05-15T20:34:21.464Z,10.17
2019-05-15T20:36:52.355Z,10.16
2019-05-15T20:39:23.096Z,10.04
2019-05-15T20:41:53.920Z,10.13
2019-05-15T20:44:24.676Z,10.24
2019-05-15T20:46:55.500Z,10.10
2019-05-15T20:49:28.620Z,10.12
2019-05-15T20:51:59.108Z,10.16
2019-05-15T20:54:29.952Z,10.20
2019-05-15T20:57:00.696Z,10.22
2019-05-15T20:59:31.450Z,10.19
2019-05-15T21:02:02.248Z,10.00
2019-05-15T21:04:33.506Z,10.12
2019-05-15T21:07:04.450Z,10.16
2019-05-15T21:09:35.172Z,10.08
2019-05-15T21:12:05.942Z,10.19
2019-05-15T21:14:39.833Z,10.01
2019-05-15T21:17:09.225Z,10.05
2019-05-15T21:19:42.418Z,9.97
2019-05-15T21:22:13.244Z,10.09
2019-05-15T21:24:43.986Z,10.12
2019-05-15T21:27:14.810Z,10.08
2019-05-15T21:29:45.565Z,10.00
2019-05-15T21:32:15.993Z,10.10
2019-05-15T21:34:49.222Z,10.02
2019-05-15T21:37:19.010Z,10.15
2019-05-15T21:39:49.816Z,10.02
2019-05-15T21:42:20.583Z,10.20
2019-05-15T21:44:51.392Z,10.02
2019-05-15T21:47:22.132Z,10.04
2019-05-15T21:49:52.852Z,9.95
2019-05-15T21:52:23.588Z,9.78
2019-05-15T21:54:54.066Z,9.77
2019-05-15T21:57:33.108Z,9.89
2019-05-15T21:59:57.804Z,9.88
2019-05-15T22:02:29.743Z,9.82
2019-05-15T22:05:00.886Z,9.82
2019-05-15T22:08:27.784Z,9.79
2019-05-15T22:10:58.849Z,9.85
2019-05-15T22:13:31.592Z,9.82
2019-05-15T22:16:02.081Z,9.84
2019-05-15T22:18:32.990Z,9.77
2019-05-15T22:21:04.361Z,9.76
2019-05-15T22:23:35.174Z,9.77
2019-05-15T22:26:05.572Z,9.81
2019-05-15T22:28:38.483Z,9.81
2019-05-15T22:31:08.918Z,9.81
2019-05-15T22:33:39.856Z,9.82
2019-05-15T22:36:11.428Z,9.76
2019-05-15T22:38:42.247Z,9.82
2019-05-15T22:41:13.072Z,9.84
2019-05-15T22:43:43.826Z,9.75
2019-05-15T22:46:14.986Z,9.82
2019-05-15T22:48:48.397Z,9.84
2019-05-15T22:51:18.589Z,9.82
2019-05-15T22:53:49.426Z,9.78
2019-05-15T22:56:19.890Z,9.80
2019-05-15T22:58:50.560Z,9.96
2019-05-15T23:01:20.953Z,9.99
2019-05-15T23:03:51.718Z,9.76
2019-05-15T23:06:22.454Z,9.81
2019-05-15T23:08:52.913Z,9.82
2019-05-15T23:11:24.715Z,9.62
2019-05-15T23:13:55.706Z,9.62
2019-05-15T23:16:28.316Z,9.40
2019-05-15T23:18:58.916Z,9.20
2019-05-15T23:21:29.853Z,9.22
2019-05-15T23:24:00.691Z,9.12
2019-05-15T23:26:31.412Z,9.24
2019-05-15T23:29:02.145Z,9.07
2019-05-15T23:31:32.884Z,8.98
2019-05-15T23:34:03.700Z,9.02
2019-05-15T23:36:34.442Z,8.97
2019-05-15T23:39:07.876Z,9.00
2019-05-15T23:41:38.786Z,9.07
2019-05-15T23:44:09.636Z,8.98
2019-05-15T23:46:40.346Z,9.04
2019-05-15T23:49:11.091Z,9.01
2019-05-15T23:51:41.824Z,9.00
2019-05-15T23:54:12.574Z,8.93
2019-05-15T23:56:43.500Z,9.05
2019-05-15T23:59:14.218Z,8.92
